メキシコシティ の空港の天気 - METARとTAF

メキシコ・シティ国際空港 ( MMMX / MEX ) - メキシコ メキシコシティ
飛行場実況気象(Metar)
観測時間10/22 06:46 CDT (10/22 11:46 UTC)
風向・風速東北東 3m/s
視程9650m
天気現象
少しの雲 雲底高度 7010m
気温11℃
湿度82%
気圧1010hPa
METARMMMX 221146Z 06005KT 6SM FEW230 11/08 A3030 NOSIG RMK SLP100 52003 901 8/001 HZY
過去の天気等 Google飛行場航空写真 Wunderground天気予報

過去48時間のMETAR

飛行場予報(TAF)
発表時間: 10/22 06:24 CDT (10/22 11:24 UTC)
予報対象時間: 22日7時 CDT ~ 23日13時 CDT
風向・風速東北東 3m/s
視程10km以上
全天の4割程度の雲 雲底高度 7620m
22日16時 CDT から
風向・風速東北東 5m/s
視程10km以上
全天の4割程度の雲 雲底高度 610m
全天の4割程度の雲 雲底高度 7620m
22日22時 CDT から
風向・風速北東 3m/s
視程10km以上
全天の4割程度の雲 雲底高度 2440m
23日12時 CDT から
風向・風速東北東 3m/s
視程10km以上
全天の4割程度の雲 雲底高度 610m
TAF MMMX 221124Z 2212/2318 06005KT P6SM SCT250 TX25/2221Z TN10/2212Z
FM222100 06010KT P6SM SCT020 SCT250
FM230300 04005KT P6SM SCT080
FM231700 06005KT P6SM SCT020